Terminal Aerodrome Forecast
Issued by NWS Greer, SC

Home | Current Version | Previous Version | Text Only | Print | Product List | Glossary On
Versions: 1 2 3 4 5 6 7 8 9 10 11 12 13 14 15 16 17 18 19 20 21 22 23 24 25 26 27 28 29 30 31 32 33 34 35 36 37 38 39 40 41 42 43 44 45 46
000
FTUS42 KGSP 022330
TAFAVL
TAF
KAVL 022330Z 0300/0324 35011KT P6SM BKN180
     FM030300 00000KT P6SM OVC080
     FM030900 12004KT 5SM -RA BR OVC015
     FM031200 13004KT 4SM -RA BR OVC008
     FM031500 14004KT 4SM -RA BR OVC004=

USA.gov is the U.S. government's official web portal to all federal, state and local government web resources and services.